sensor_id;sensor_type;location;lat;lon;timestamp;P1;durP1;ratioP1;P2;durP2;ratioP2
7563;SDS011;3823;53.586;10.040;2022-07-21T00:01:45;12.95;;;10.90;;
7563;SDS011;3823;53.586;10.040;2022-07-21T00:04:10;11.32;;;10.18;;
7563;SDS011;3823;53.586;10.040;2022-07-21T00:06:36;11.63;;;10.48;;
7563;SDS011;3823;53.586;10.040;2022-07-21T00:09:02;12.73;;;10.27;;
7563;SDS011;3823;53.586;10.040;2022-07-21T00:11:27;12.52;;;11.32;;
7563;SDS011;3823;53.586;10.040;2022-07-21T00:13:53;12.27;;;10.95;;
7563;SDS011;3823;53.586;10.040;2022-07-21T00:16:19;13.80;;;11.43;;
7563;SDS011;3823;53.586;10.040;2022-07-21T00:18:45;11.20;;;10.15;;
7563;SDS011;3823;53.586;10.040;2022-07-21T00:21:10;12.38;;;11.07;;
7563;SDS011;3823;53.586;10.040;2022-07-21T00:23:36;12.68;;;10.00;;
7563;SDS011;3823;53.586;10.040;2022-07-21T00:26:01;13.75;;;10.18;;
7563;SDS011;3823;53.586;10.040;2022-07-21T00:28:27;17.45;;;10.70;;
7563;SDS011;3823;53.586;10.040;2022-07-21T00:30:53;13.43;;;10.38;;
7563;SDS011;3823;53.586;10.040;2022-07-21T00:33:18;11.23;;;10.13;;
7563;SDS011;3823;53.586;10.040;2022-07-21T00:35:44;12.02;;;10.70;;
7563;SDS011;3823;53.586;10.040;2022-07-21T00:38:09;14.70;;;10.82;;
7563;SDS011;3823;53.586;10.040;2022-07-21T00:40:35;15.73;;;10.82;;
7563;SDS011;3823;53.586;10.040;2022-07-21T00:43:00;12.20;;;11.05;;
7563;SDS011;3823;53.586;10.040;2022-07-21T00:45:26;13.32;;;11.15;;
7563;SDS011;3823;53.586;10.040;2022-07-21T00:47:52;14.32;;;10.50;;
7563;SDS011;3823;53.586;10.040;2022-07-21T00:50:19;12.50;;;11.20;;
7563;SDS011;3823;53.586;10.040;2022-07-21T00:52:46;14.27;;;11.88;;
7563;SDS011;3823;53.586;10.040;2022-07-21T00:55:13;13.15;;;11.75;;
7563;SDS011;3823;53.586;10.040;2022-07-21T00:57:40;13.98;;;11.00;;
7563;SDS011;3823;53.586;10.040;2022-07-21T01:00:07;13.02;;;11.63;;
7563;SDS011;3823;53.586;10.040;2022-07-21T01:02:35;14.05;;;11.80;;
7563;SDS011;3823;53.586;10.040;2022-07-21T01:05:05;14.40;;;12.00;;
7563;SDS011;3823;53.586;10.040;2022-07-21T01:07:34;19.05;;;11.77;;
7563;SDS011;3823;53.586;10.040;2022-07-21T01:09:59;18.13;;;12.68;;
7563;SDS011;3823;53.586;10.040;2022-07-21T01:12:25;12.73;;;11.30;;
7563;SDS011;3823;53.586;10.040;2022-07-21T01:14:51;12.98;;;11.63;;
7563;SDS011;3823;53.586;10.040;2022-07-21T01:17:17;12.27;;;11.05;;
7563;SDS011;3823;53.586;10.040;2022-07-21T01:19:43;12.18;;;10.98;;
7563;SDS011;3823;53.586;10.040;2022-07-21T01:22:09;13.57;;;11.15;;
7563;SDS011;3823;53.586;10.040;2022-07-21T01:24:35;13.02;;;10.35;;
7563;SDS011;3823;53.586;10.040;2022-07-21T01:27:01;12.35;;;11.15;;
7563;SDS011;3823;53.586;10.040;2022-07-21T01:29:26;13.80;;;11.23;;
7563;SDS011;3823;53.586;10.040;2022-07-21T01:31:52;12.20;;;10.95;;
7563;SDS011;3823;53.586;10.040;2022-07-21T01:34:18;15.23;;;11.73;;
7563;SDS011;3823;53.586;10.040;2022-07-21T01:36:43;12.95;;;11.68;;
7563;SDS011;3823;53.586;10.040;2022-07-21T01:39:09;13.27;;;11.88;;
7563;SDS011;3823;53.586;10.040;2022-07-21T01:41:53;12.88;;;11.57;;
7563;SDS011;3823;53.586;10.040;2022-07-21T01:44:19;12.52;;;10.98;;
7563;SDS011;3823;53.586;10.040;2022-07-21T01:46:48;15.13;;;11.95;;
7563;SDS011;3823;53.586;10.040;2022-07-21T01:49:15;18.77;;;13.27;;
7563;SDS011;3823;53.586;10.040;2022-07-21T01:51:42;12.88;;;11.70;;
7563;SDS011;3823;53.586;10.040;2022-07-21T01:54:08;18.80;;;12.52;;
7563;SDS011;3823;53.586;10.040;2022-07-21T01:56:35;16.08;;;12.30;;
7563;SDS011;3823;53.586;10.040;2022-07-21T01:59:01;18.67;;;12.23;;
7563;SDS011;3823;53.586;10.040;2022-07-21T02:01:28;14.55;;;11.13;;
7563;SDS011;3823;53.586;10.040;2022-07-21T02:03:56;14.02;;;11.85;;
7563;SDS011;3823;53.586;10.040;2022-07-21T02:06:23;18.35;;;11.25;;
7563;SDS011;3823;53.586;10.040;2022-07-21T02:08:59;16.38;;;11.30;;
7563;SDS011;3823;53.586;10.040;2022-07-21T02:11:24;14.95;;;11.25;;
7563;SDS011;3823;53.586;10.040;2022-07-21T02:13:50;17.52;;;10.25;;
7563;SDS011;3823;53.586;10.040;2022-07-21T02:16:16;13.48;;;10.77;;
7563;SDS011;3823;53.586;10.040;2022-07-21T02:18:41;15.48;;;10.93;;
7563;SDS011;3823;53.586;10.040;2022-07-21T02:21:08;14.65;;;11.32;;
7563;SDS011;3823;53.586;10.040;2022-07-21T02:23:34;15.98;;;12.15;;
7563;SDS011;3823;53.586;10.040;2022-07-21T02:26:00;13.27;;;10.63;;
7563;SDS011;3823;53.586;10.040;2022-07-21T02:28:26;13.38;;;11.02;;
7563;SDS011;3823;53.586;10.040;2022-07-21T02:30:52;14.95;;;11.85;;
7563;SDS011;3823;53.586;10.040;2022-07-21T02:33:19;12.15;;;9.80;;
7563;SDS011;3823;53.586;10.040;2022-07-21T02:35:45;17.00;;;10.50;;
7563;SDS011;3823;53.586;10.040;2022-07-21T02:38:11;12.70;;;10.18;;
7563;SDS011;3823;53.586;10.040;2022-07-21T02:40:37;15.20;;;10.68;;
7563;SDS011;3823;53.586;10.040;2022-07-21T02:43:03;19.33;;;11.55;;
7563;SDS011;3823;53.586;10.040;2022-07-21T02:45:30;15.95;;;11.75;;
7563;SDS011;3823;53.586;10.040;2022-07-21T02:48:06;19.02;;;11.40;;
7563;SDS011;3823;53.586;10.040;2022-07-21T02:50:35;17.25;;;11.20;;
7563;SDS011;3823;53.586;10.040;2022-07-21T02:53:04;15.35;;;12.20;;
7563;SDS011;3823;53.586;10.040;2022-07-21T02:55:31;14.13;;;12.38;;
7563;SDS011;3823;53.586;10.040;2022-07-21T02:58:03;17.00;;;12.68;;
7563;SDS011;3823;53.586;10.040;2022-07-21T03:00:33;14.73;;;11.88;;
7563;SDS011;3823;53.586;10.040;2022-07-21T03:03:00;21.08;;;13.38;;
7563;SDS011;3823;53.586;10.040;2022-07-21T03:05:25;18.70;;;12.43;;
7563;SDS011;3823;53.586;10.040;2022-07-21T03:07:51;21.70;;;14.55;;
7563;SDS011;3823;53.586;10.040;2022-07-21T03:10:16;17.27;;;13.10;;
7563;SDS011;3823;53.586;10.040;2022-07-21T03:12:42;13.85;;;12.13;;
7563;SDS011;3823;53.586;10.040;2022-07-21T03:15:08;18.88;;;13.15;;
7563;SDS011;3823;53.586;10.040;2022-07-21T03:17:34;19.08;;;12.85;;
7563;SDS011;3823;53.586;10.040;2022-07-21T03:19:59;21.02;;;11.55;;
7563;SDS011;3823;53.586;10.040;2022-07-21T03:22:25;23.05;;;11.93;;
7563;SDS011;3823;53.586;10.040;2022-07-21T03:24:50;22.88;;;13.32;;
7563;SDS011;3823;53.586;10.040;2022-07-21T03:27:16;24.45;;;11.40;;
7563;SDS011;3823;53.586;10.040;2022-07-21T03:29:42;16.08;;;11.45;;
7563;SDS011;3823;53.586;10.040;2022-07-21T03:32:08;16.30;;;10.02;;
7563;SDS011;3823;53.586;10.040;2022-07-21T03:34:34;14.50;;;9.45;;
7563;SDS011;3823;53.586;10.040;2022-07-21T03:36:59;12.93;;;10.05;;
7563;SDS011;3823;53.586;10.040;2022-07-21T03:39:25;14.70;;;10.00;;
7563;SDS011;3823;53.586;10.040;2022-07-21T03:41:51;16.83;;;10.55;;
7563;SDS011;3823;53.586;10.040;2022-07-21T03:44:16;11.30;;;8.68;;
7563;SDS011;3823;53.586;10.040;2022-07-21T03:46:42;13.07;;;8.75;;
7563;SDS011;3823;53.586;10.040;2022-07-21T03:49:07;13.68;;;8.68;;
7563;SDS011;3823;53.586;10.040;2022-07-21T03:51:33;20.40;;;10.73;;
7563;SDS011;3823;53.586;10.040;2022-07-21T03:53:59;11.30;;;7.05;;
7563;SDS011;3823;53.586;10.040;2022-07-21T03:56:26;9.73;;;7.45;;
7563;SDS011;3823;53.586;10.040;2022-07-21T03:58:52;11.95;;;7.00;;
7563;SDS011;3823;53.586;10.040;2022-07-21T04:01:18;15.25;;;7.18;;
7563;SDS011;3823;53.586;10.040;2022-07-21T04:03:43;7.78;;;5.80;;
7563;SDS011;3823;53.586;10.040;2022-07-21T04:06:09;12.65;;;6.82;;
7563;SDS011;3823;53.586;10.040;2022-07-21T04:08:36;11.75;;;6.22;;
7563;SDS011;3823;53.586;10.040;2022-07-21T04:11:02;11.25;;;6.30;;
7563;SDS011;3823;53.586;10.040;2022-07-21T04:13:28;8.90;;;7.13;;
7563;SDS011;3823;53.586;10.040;2022-07-21T04:15:53;10.80;;;6.03;;
7563;SDS011;3823;53.586;10.040;2022-07-21T04:18:19;10.25;;;6.05;;
7563;SDS011;3823;53.586;10.040;2022-07-21T04:20:44;11.60;;;6.05;;
7563;SDS011;3823;53.586;10.040;2022-07-21T04:23:10;10.05;;;6.65;;
7563;SDS011;3823;53.586;10.040;2022-07-21T04:25:35;10.95;;;6.60;;
7563;SDS011;3823;53.586;10.040;2022-07-21T04:28:03;14.73;;;6.25;;
7563;SDS011;3823;53.586;10.040;2022-07-21T04:30:29;6.47;;;5.82;;
7563;SDS011;3823;53.586;10.040;2022-07-21T04:32:55;12.88;;;6.57;;
7563;SDS011;3823;53.586;10.040;2022-07-21T04:35:21;10.48;;;6.28;;
7563;SDS011;3823;53.586;10.040;2022-07-21T04:37:47;13.45;;;5.75;;
7563;SDS011;3823;53.586;10.040;2022-07-21T04:40:13;7.72;;;5.35;;
7563;SDS011;3823;53.586;10.040;2022-07-21T04:42:39;8.93;;;5.55;;
7563;SDS011;3823;53.586;10.040;2022-07-21T04:45:06;9.48;;;5.82;;
7563;SDS011;3823;53.586;10.040;2022-07-21T04:47:45;6.28;;;4.85;;
7563;SDS011;3823;53.586;10.040;2022-07-21T04:50:12;13.45;;;5.88;;
7563;SDS011;3823;53.586;10.040;2022-07-21T04:52:39;11.20;;;5.70;;
7563;SDS011;3823;53.586;10.040;2022-07-21T04:55:05;10.07;;;6.00;;
7563;SDS011;3823;53.586;10.040;2022-07-21T04:57:35;10.55;;;6.05;;
7563;SDS011;3823;53.586;10.040;2022-07-21T05:00:05;6.55;;;5.10;;
7563;SDS011;3823;53.586;10.040;2022-07-21T05:02:32;12.05;;;6.13;;
7563;SDS011;3823;53.586;10.040;2022-07-21T05:04:57;8.93;;;5.65;;
7563;SDS011;3823;53.586;10.040;2022-07-21T05:07:23;8.25;;;5.45;;
7563;SDS011;3823;53.586;10.040;2022-07-21T05:09:48;7.25;;;4.75;;
7563;SDS011;3823;53.586;10.040;2022-07-21T05:12:14;8.23;;;5.45;;
7563;SDS011;3823;53.586;10.040;2022-07-21T05:14:39;8.23;;;5.57;;
7563;SDS011;3823;53.586;10.040;2022-07-21T05:17:05;8.65;;;4.72;;
7563;SDS011;3823;53.586;10.040;2022-07-21T05:19:30;10.50;;;5.53;;
7563;SDS011;3823;53.586;10.040;2022-07-21T05:21:56;8.18;;;5.65;;
7563;SDS011;3823;53.586;10.040;2022-07-21T05:24:22;10.32;;;5.03;;
7563;SDS011;3823;53.586;10.040;2022-07-21T05:26:47;7.88;;;4.50;;
7563;SDS011;3823;53.586;10.040;2022-07-21T05:29:13;5.30;;;4.80;;
7563;SDS011;3823;53.586;10.040;2022-07-21T05:31:39;10.15;;;4.97;;
7563;SDS011;3823;53.586;10.040;2022-07-21T05:34:04;11.00;;;5.43;;
7563;SDS011;3823;53.586;10.040;2022-07-21T05:36:30;12.40;;;6.55;;
7563;SDS011;3823;53.586;10.040;2022-07-21T05:38:55;9.82;;;5.20;;
7563;SDS011;3823;53.586;10.040;2022-07-21T05:41:21;8.63;;;5.57;;
7563;SDS011;3823;53.586;10.040;2022-07-21T05:43:47;8.88;;;4.78;;
7563;SDS011;3823;53.586;10.040;2022-07-21T05:46:13;8.30;;;5.07;;
7563;SDS011;3823;53.586;10.040;2022-07-21T05:48:38;8.75;;;5.65;;
7563;SDS011;3823;53.586;10.040;2022-07-21T05:51:04;9.10;;;5.25;;
7563;SDS011;3823;53.586;10.040;2022-07-21T05:53:30;4.85;;;4.45;;
7563;SDS011;3823;53.586;10.040;2022-07-21T05:55:56;7.80;;;4.88;;
7563;SDS011;3823;53.586;10.040;2022-07-21T05:58:22;10.88;;;5.13;;
7563;SDS011;3823;53.586;10.040;2022-07-21T06:00:49;11.20;;;5.53;;
7563;SDS011;3823;53.586;10.040;2022-07-21T06:03:33;8.13;;;5.50;;
7563;SDS011;3823;53.586;10.040;2022-07-21T06:05:59;11.40;;;5.35;;
7563;SDS011;3823;53.586;10.040;2022-07-21T06:08:25;9.80;;;5.28;;
7563;SDS011;3823;53.586;10.040;2022-07-21T06:10:50;10.77;;;5.10;;
7563;SDS011;3823;53.586;10.040;2022-07-21T06:13:16;5.43;;;4.20;;
7563;SDS011;3823;53.586;10.040;2022-07-21T06:15:41;6.80;;;5.25;;
7563;SDS011;3823;53.586;10.040;2022-07-21T06:18:07;8.43;;;5.40;;
7563;SDS011;3823;53.586;10.040;2022-07-21T06:20:33;5.90;;;4.40;;
7563;SDS011;3823;53.586;10.040;2022-07-21T06:22:58;7.95;;;5.47;;
7563;SDS011;3823;53.586;10.040;2022-07-21T06:25:24;7.18;;;5.85;;
7563;SDS011;3823;53.586;10.040;2022-07-21T06:27:49;8.43;;;5.45;;
7563;SDS011;3823;53.586;10.040;2022-07-21T06:30:15;12.15;;;6.05;;
7563;SDS011;3823;53.586;10.040;2022-07-21T06:32:40;9.45;;;5.80;;
7563;SDS011;3823;53.586;10.040;2022-07-21T06:35:06;15.55;;;6.72;;
7563;SDS011;3823;53.586;10.040;2022-07-21T06:37:32;5.88;;;5.18;;
7563;SDS011;3823;53.586;10.040;2022-07-21T06:39:57;11.60;;;5.68;;
7563;SDS011;3823;53.586;10.040;2022-07-21T06:42:24;10.38;;;5.75;;
7563;SDS011;3823;53.586;10.040;2022-07-21T06:44:50;9.85;;;5.30;;
7563;SDS011;3823;53.586;10.040;2022-07-21T06:47:15;7.93;;;6.15;;
7563;SDS011;3823;53.586;10.040;2022-07-21T06:49:41;12.50;;;7.55;;
7563;SDS011;3823;53.586;10.040;2022-07-21T06:52:06;13.88;;;6.50;;
7563;SDS011;3823;53.586;10.040;2022-07-21T06:54:32;13.27;;;7.03;;
7563;SDS011;3823;53.586;10.040;2022-07-21T06:56:58;20.83;;;8.52;;
7563;SDS011;3823;53.586;10.040;2022-07-21T06:59:23;9.88;;;6.32;;
7563;SDS011;3823;53.586;10.040;2022-07-21T07:01:49;10.02;;;6.45;;
7563;SDS011;3823;53.586;10.040;2022-07-21T07:04:14;7.55;;;6.55;;
7563;SDS011;3823;53.586;10.040;2022-07-21T07:06:40;10.00;;;8.02;;
7563;SDS011;3823;53.586;10.040;2022-07-21T07:09:06;12.57;;;7.18;;
7563;SDS011;3823;53.586;10.040;2022-07-21T07:11:31;13.52;;;8.00;;
7563;SDS011;3823;53.586;10.040;2022-07-21T07:13:59;12.88;;;7.45;;
7563;SDS011;3823;53.586;10.040;2022-07-21T07:16:25;10.90;;;7.22;;
7563;SDS011;3823;53.586;10.040;2022-07-21T07:18:50;7.45;;;6.70;;
7563;SDS011;3823;53.586;10.040;2022-07-21T07:21:16;11.27;;;7.50;;
7563;SDS011;3823;53.586;10.040;2022-07-21T07:23:41;10.95;;;7.32;;
7563;SDS011;3823;53.586;10.040;2022-07-21T07:26:08;13.52;;;8.23;;
7563;SDS011;3823;53.586;10.040;2022-07-21T07:28:33;14.75;;;7.95;;
7563;SDS011;3823;53.586;10.040;2022-07-21T07:30:59;10.80;;;7.63;;
7563;SDS011;3823;53.586;10.040;2022-07-21T07:33:25;9.70;;;8.05;;
7563;SDS011;3823;53.586;10.040;2022-07-21T07:35:52;15.85;;;8.07;;
7563;SDS011;3823;53.586;10.040;2022-07-21T07:38:17;15.95;;;7.75;;
7563;SDS011;3823;53.586;10.040;2022-07-21T07:40:43;11.45;;;7.80;;
7563;SDS011;3823;53.586;10.040;2022-07-21T07:43:09;13.43;;;7.50;;
7563;SDS011;3823;53.586;10.040;2022-07-21T07:45:35;12.18;;;7.18;;
7563;SDS011;3823;53.586;10.040;2022-07-21T07:48:01;11.82;;;9.00;;
7563;SDS011;3823;53.586;10.040;2022-07-21T07:50:27;13.35;;;8.98;;
7563;SDS011;3823;53.586;10.040;2022-07-21T07:52:53;16.40;;;8.90;;
7563;SDS011;3823;53.586;10.040;2022-07-21T07:55:19;12.98;;;7.40;;
7563;SDS011;3823;53.586;10.040;2022-07-21T07:57:45;12.48;;;9.52;;
7563;SDS011;3823;53.586;10.040;2022-07-21T08:00:14;15.27;;;10.43;;
7563;SDS011;3823;53.586;10.040;2022-07-21T08:02:42;16.73;;;9.45;;
7563;SDS011;3823;53.586;10.040;2022-07-21T08:05:08;18.80;;;9.45;;
7563;SDS011;3823;53.586;10.040;2022-07-21T08:07:38;12.73;;;9.10;;
7563;SDS011;3823;53.586;10.040;2022-07-21T08:10:05;15.88;;;11.40;;
7563;SDS011;3823;53.586;10.040;2022-07-21T08:12:36;17.85;;;11.25;;
7563;SDS011;3823;53.586;10.040;2022-07-21T08:15:02;17.13;;;11.20;;
7563;SDS011;3823;53.586;10.040;2022-07-21T08:17:28;15.43;;;12.68;;
7563;SDS011;3823;53.586;10.040;2022-07-21T08:19:54;16.33;;;12.35;;
7563;SDS011;3823;53.586;10.040;2022-07-21T08:22:19;16.77;;;13.40;;
7563;SDS011;3823;53.586;10.040;2022-07-21T08:24:45;15.07;;;12.77;;
7563;SDS011;3823;53.586;10.040;2022-07-21T08:27:10;15.98;;;13.07;;
7563;SDS011;3823;53.586;10.040;2022-07-21T08:29:36;21.65;;;13.10;;
7563;SDS011;3823;53.586;10.040;2022-07-21T08:32:02;19.70;;;14.93;;
7563;SDS011;3823;53.586;10.040;2022-07-21T08:34:28;21.10;;;13.60;;
7563;SDS011;3823;53.586;10.040;2022-07-21T08:36:54;17.40;;;12.65;;
7563;SDS011;3823;53.586;10.040;2022-07-21T08:39:19;19.10;;;13.82;;
7563;SDS011;3823;53.586;10.040;2022-07-21T08:41:45;23.02;;;14.65;;
7563;SDS011;3823;53.586;10.040;2022-07-21T08:44:11;17.98;;;14.02;;
7563;SDS011;3823;53.586;10.040;2022-07-21T08:46:37;18.70;;;14.57;;
7563;SDS011;3823;53.586;10.040;2022-07-21T08:49:05;19.88;;;15.15;;
7563;SDS011;3823;53.586;10.040;2022-07-21T08:51:32;16.85;;;13.88;;
7563;SDS011;3823;53.586;10.040;2022-07-21T08:53:59;30.98;;;15.32;;
7563;SDS011;3823;53.586;10.040;2022-07-21T08:56:25;19.58;;;15.13;;
7563;SDS011;3823;53.586;10.040;2022-07-21T08:58:50;16.63;;;13.98;;
7563;SDS011;3823;53.586;10.040;2022-07-21T09:01:19;21.05;;;13.98;;
7563;SDS011;3823;53.586;10.040;2022-07-21T09:04:41;19.70;;;16.75;;
7563;SDS011;3823;53.586;10.040;2022-07-21T09:17:18;20.17;;;15.60;;
7563;SDS011;3823;53.586;10.040;2022-07-21T09:20:25;20.92;;;15.18;;
7563;SDS011;3823;53.586;10.040;2022-07-21T09:23:09;16.95;;;15.23;;
7563;SDS011;3823;53.586;10.040;2022-07-21T09:28:40;19.85;;;16.23;;
7563;SDS011;3823;53.586;10.040;2022-07-21T09:31:17;16.65;;;15.02;;
7563;SDS011;3823;53.586;10.040;2022-07-21T09:37:09;19.25;;;14.52;;
7563;SDS011;3823;53.586;10.040;2022-07-21T09:39:56;20.40;;;14.65;;
7563;SDS011;3823;53.586;10.040;2022-07-21T09:42:37;15.30;;;13.13;;
7563;SDS011;3823;53.586;10.040;2022-07-21T09:45:26;15.45;;;13.15;;
7563;SDS011;3823;53.586;10.040;2022-07-21T09:48:06;18.20;;;14.40;;
7563;SDS011;3823;53.586;10.040;2022-07-21T09:50:42;15.88;;;13.73;;
7563;SDS011;3823;53.586;10.040;2022-07-21T09:53:31;18.52;;;13.57;;
7563;SDS011;3823;53.586;10.040;2022-07-21T09:59:04;20.55;;;14.60;;
7563;SDS011;3823;53.586;10.040;2022-07-21T10:01:40;12.88;;;11.50;;
7563;SDS011;3823;53.586;10.040;2022-07-21T10:04:14;15.82;;;14.23;;
7563;SDS011;3823;53.586;10.040;2022-07-21T10:06:52;25.98;;;14.77;;
7563;SDS011;3823;53.586;10.040;2022-07-21T10:09:31;17.23;;;13.70;;
7563;SDS011;3823;53.586;10.040;2022-07-21T10:12:01;13.75;;;11.98;;
7563;SDS011;3823;53.586;10.040;2022-07-21T10:14:38;16.10;;;12.07;;
7563;SDS011;3823;53.586;10.040;2022-07-21T10:17:04;23.52;;;12.43;;
7563;SDS011;3823;53.586;10.040;2022-07-21T10:22:25;17.27;;;11.57;;
7563;SDS011;3823;53.586;10.040;2022-07-21T10:25:14;13.73;;;12.15;;
7563;SDS011;3823;53.586;10.040;2022-07-21T10:30:49;12.65;;;11.35;;
7563;SDS011;3823;53.586;10.040;2022-07-21T10:34:09;14.65;;;12.07;;
7563;SDS011;3823;53.586;10.040;2022-07-21T10:36:11;18.05;;;10.93;;
7563;SDS011;3823;53.586;10.040;2022-07-21T10:39:25;11.57;;;10.32;;
7563;SDS011;3823;53.586;10.040;2022-07-21T10:41:46;12.05;;;10.90;;
7563;SDS011;3823;53.586;10.040;2022-07-21T10:49:51;12.10;;;11.00;;
7563;SDS011;3823;53.586;10.040;2022-07-21T10:57:45;13.88;;;10.85;;
7563;SDS011;3823;53.586;10.040;2022-07-21T11:00:19;12.60;;;11.27;;
7563;SDS011;3823;53.586;10.040;2022-07-21T11:05:27;9.13;;;7.80;;
7563;SDS011;3823;53.586;10.040;2022-07-21T11:10:42;10.05;;;8.05;;
7563;SDS011;3823;53.586;10.040;2022-07-21T11:13:13;8.73;;;6.32;;
7563;SDS011;3823;53.586;10.040;2022-07-21T11:18:15;8.18;;;7.45;;
7563;SDS011;3823;53.586;10.040;2022-07-21T11:20:42;9.45;;;8.45;;
7563;SDS011;3823;53.586;10.040;2022-07-21T11:23:08;8.30;;;7.63;;
7563;SDS011;3823;53.586;10.040;2022-07-21T11:25:37;8.20;;;7.60;;
7563;SDS011;3823;53.586;10.040;2022-07-21T11:28:02;7.88;;;7.13;;
7563;SDS011;3823;53.586;10.040;2022-07-21T11:30:40;8.45;;;7.82;;
7563;SDS011;3823;53.586;10.040;2022-07-21T11:33:06;8.48;;;7.68;;
7563;SDS011;3823;53.586;10.040;2022-07-21T11:35:32;8.40;;;7.55;;
7563;SDS011;3823;53.586;10.040;2022-07-21T11:38:03;9.05;;;8.35;;
7563;SDS011;3823;53.586;10.040;2022-07-21T11:40:29;10.00;;;9.10;;
7563;SDS011;3823;53.586;10.040;2022-07-21T11:42:55;11.38;;;8.88;;
7563;SDS011;3823;53.586;10.040;2022-07-21T11:45:22;9.98;;;9.13;;
7563;SDS011;3823;53.586;10.040;2022-07-21T11:47:52;9.50;;;8.50;;
7563;SDS011;3823;53.586;10.040;2022-07-21T11:50:18;9.32;;;8.48;;
7563;SDS011;3823;53.586;10.040;2022-07-21T11:52:44;9.32;;;8.40;;
7563;SDS011;3823;53.586;10.040;2022-07-21T11:55:13;7.22;;;6.63;;
7563;SDS011;3823;53.586;10.040;2022-07-21T11:57:45;8.48;;;7.05;;
7563;SDS011;3823;53.586;10.040;2022-07-21T12:00:11;8.02;;;7.43;;
7563;SDS011;3823;53.586;10.040;2022-07-21T12:02:38;8.23;;;7.60;;
7563;SDS011;3823;53.586;10.040;2022-07-21T12:05:05;6.95;;;6.10;;
7563;SDS011;3823;53.586;10.040;2022-07-21T12:07:37;8.25;;;6.65;;
7563;SDS011;3823;53.586;10.040;2022-07-21T12:10:08;8.10;;;7.18;;
7563;SDS011;3823;53.586;10.040;2022-07-21T12:22:57;7.57;;;6.93;;
7563;SDS011;3823;53.586;10.040;2022-07-21T12:25:31;6.13;;;5.53;;
7563;SDS011;3823;53.586;10.040;2022-07-21T12:28:06;6.00;;;5.05;;
7563;SDS011;3823;53.586;10.040;2022-07-21T12:30:42;6.65;;;6.05;;
7563;SDS011;3823;53.586;10.040;2022-07-21T12:33:13;6.82;;;6.28;;
7563;SDS011;3823;53.586;10.040;2022-07-21T12:35:44;6.20;;;5.80;;
7563;SDS011;3823;53.586;10.040;2022-07-21T12:40:40;7.00;;;6.40;;
7563;SDS011;3823;53.586;10.040;2022-07-21T12:43:16;5.80;;;5.40;;
7563;SDS011;3823;53.586;10.040;2022-07-21T12:46:30;5.80;;;5.40;;
7563;SDS011;3823;53.586;10.040;2022-07-21T12:48:43;6.78;;;6.18;;
7563;SDS011;3823;53.586;10.040;2022-07-21T12:51:13;5.40;;;5.00;;
7563;SDS011;3823;53.586;10.040;2022-07-21T12:53:49;6.93;;;5.20;;
7563;SDS011;3823;53.586;10.040;2022-07-21T12:56:17;5.40;;;4.90;;
7563;SDS011;3823;53.586;10.040;2022-07-21T12:58:46;4.70;;;4.35;;
7563;SDS011;3823;53.586;10.040;2022-07-21T13:01:14;5.10;;;4.80;;
7563;SDS011;3823;53.586;10.040;2022-07-21T13:03:41;5.80;;;5.32;;
7563;SDS011;3823;53.586;10.040;2022-07-21T13:06:08;5.10;;;4.80;;
7563;SDS011;3823;53.586;10.040;2022-07-21T13:08:35;5.32;;;4.82;;
7563;SDS011;3823;53.586;10.040;2022-07-21T13:11:03;5.57;;;5.18;;
7563;SDS011;3823;53.586;10.040;2022-07-21T13:13:30;5.72;;;5.22;;
7563;SDS011;3823;53.586;10.040;2022-07-21T13:15:56;5.82;;;5.07;;
7563;SDS011;3823;53.586;10.040;2022-07-21T13:18:22;6.90;;;6.25;;
7563;SDS011;3823;53.586;10.040;2022-07-21T13:20:48;5.25;;;4.93;;
7563;SDS011;3823;53.586;10.040;2022-07-21T13:23:15;6.15;;;5.80;;
7563;SDS011;3823;53.586;10.040;2022-07-21T13:25:41;6.57;;;6.07;;
7563;SDS011;3823;53.586;10.040;2022-07-21T13:28:06;6.13;;;5.63;;
7563;SDS011;3823;53.586;10.040;2022-07-21T13:30:32;5.97;;;5.57;;
7563;SDS011;3823;53.586;10.040;2022-07-21T13:32:57;5.10;;;4.80;;
7563;SDS011;3823;53.586;10.040;2022-07-21T13:35:23;5.50;;;4.80;;
7563;SDS011;3823;53.586;10.040;2022-07-21T13:37:49;5.85;;;5.35;;
7563;SDS011;3823;53.586;10.040;2022-07-21T13:40:15;6.85;;;6.10;;
7563;SDS011;3823;53.586;10.040;2022-07-21T13:42:40;6.90;;;6.30;;
7563;SDS011;3823;53.586;10.040;2022-07-21T13:45:06;6.85;;;6.35;;
7563;SDS011;3823;53.586;10.040;2022-07-21T13:47:33;6.53;;;5.97;;
7563;SDS011;3823;53.586;10.040;2022-07-21T13:49:59;7.60;;;6.05;;
7563;SDS011;3823;53.586;10.040;2022-07-21T13:52:25;6.55;;;5.85;;
7563;SDS011;3823;53.586;10.040;2022-07-21T13:54:50;5.13;;;4.63;;
7563;SDS011;3823;53.586;10.040;2022-07-21T13:57:16;4.63;;;4.22;;
7563;SDS011;3823;53.586;10.040;2022-07-21T13:59:42;3.85;;;3.65;;
7563;SDS011;3823;53.586;10.040;2022-07-21T14:02:08;4.60;;;3.80;;
7563;SDS011;3823;53.586;10.040;2022-07-21T14:04:34;3.20;;;3.00;;
7563;SDS011;3823;53.586;10.040;2022-07-21T14:07:00;3.85;;;2.63;;
7563;SDS011;3823;53.586;10.040;2022-07-21T14:09:25;3.17;;;2.88;;
7563;SDS011;3823;53.586;10.040;2022-07-21T14:11:51;2.58;;;2.47;;
7563;SDS011;3823;53.586;10.040;2022-07-21T14:14:17;3.40;;;3.20;;
7563;SDS011;3823;53.586;10.040;2022-07-21T14:16:46;3.80;;;3.10;;
7563;SDS011;3823;53.586;10.040;2022-07-21T14:19:13;2.85;;;2.65;;
7563;SDS011;3823;53.586;10.040;2022-07-21T14:21:38;3.08;;;2.78;;
7563;SDS011;3823;53.586;10.040;2022-07-21T14:24:04;2.80;;;2.70;;
7563;SDS011;3823;53.586;10.040;2022-07-21T14:26:48;3.88;;;2.25;;
7563;SDS011;3823;53.586;10.040;2022-07-21T14:29:14;2.38;;;2.28;;
7563;SDS011;3823;53.586;10.040;2022-07-21T14:31:40;3.08;;;2.88;;
7563;SDS011;3823;53.586;10.040;2022-07-21T14:34:05;2.60;;;2.30;;
7563;SDS011;3823;53.586;10.040;2022-07-21T14:36:31;2.90;;;2.80;;
7563;SDS011;3823;53.586;10.040;2022-07-21T14:38:56;2.75;;;2.55;;
7563;SDS011;3823;53.586;10.040;2022-07-21T14:41:22;2.67;;;2.47;;
7563;SDS011;3823;53.586;10.040;2022-07-21T14:43:47;3.80;;;2.28;;
7563;SDS011;3823;53.586;10.040;2022-07-21T14:46:16;2.85;;;2.75;;
7563;SDS011;3823;53.586;10.040;2022-07-21T14:48:41;3.10;;;2.85;;
7563;SDS011;3823;53.586;10.040;2022-07-21T14:51:07;3.28;;;3.08;;
7563;SDS011;3823;53.586;10.040;2022-07-21T14:53:33;3.28;;;2.63;;
7563;SDS011;3823;53.586;10.040;2022-07-21T14:55:58;3.40;;;3.05;;
7563;SDS011;3823;53.586;10.040;2022-07-21T14:58:24;2.92;;;2.83;;
7563;SDS011;3823;53.586;10.040;2022-07-21T15:00:50;4.00;;;3.70;;
7563;SDS011;3823;53.586;10.040;2022-07-21T15:03:15;3.13;;;2.92;;
7563;SDS011;3823;53.586;10.040;2022-07-21T15:05:41;3.65;;;3.45;;
7563;SDS011;3823;53.586;10.040;2022-07-21T15:08:07;2.88;;;2.78;;
7563;SDS011;3823;53.586;10.040;2022-07-21T15:10:32;3.83;;;3.53;;
7563;SDS011;3823;53.586;10.040;2022-07-21T15:12:58;4.30;;;4.10;;
7563;SDS011;3823;53.586;10.040;2022-07-21T15:15:24;3.60;;;3.40;;
7563;SDS011;3823;53.586;10.040;2022-07-21T15:17:49;3.50;;;3.30;;
7563;SDS011;3823;53.586;10.040;2022-07-21T15:20:15;3.85;;;3.40;;
7563;SDS011;3823;53.586;10.040;2022-07-21T15:22:41;4.28;;;4.07;;
7563;SDS011;3823;53.586;10.040;2022-07-21T15:25:07;3.50;;;3.30;;
7563;SDS011;3823;53.586;10.040;2022-07-21T15:27:36;5.53;;;3.70;;
7563;SDS011;3823;53.586;10.040;2022-07-21T15:30:04;3.75;;;3.45;;
7563;SDS011;3823;53.586;10.040;2022-07-21T15:32:32;5.57;;;5.28;;
7563;SDS011;3823;53.586;10.040;2022-07-21T15:34:58;6.25;;;5.70;;
7563;SDS011;3823;53.586;10.040;2022-07-21T15:37:23;5.50;;;5.15;;
7563;SDS011;3823;53.586;10.040;2022-07-21T15:39:49;5.60;;;5.25;;
7563;SDS011;3823;53.586;10.040;2022-07-21T15:42:15;5.25;;;4.85;;
7563;SDS011;3823;53.586;10.040;2022-07-21T15:44:40;5.63;;;5.18;;
7563;SDS011;3823;53.586;10.040;2022-07-21T15:47:06;4.88;;;4.55;;
7563;SDS011;3823;53.586;10.040;2022-07-21T15:49:33;5.50;;;5.00;;